METAR AND TAF INFORMATION
METAR FOR NWWW
ADDS - METARS form results

(0840 UTC 16 December 2019)
Data provider http://aviationweather.gov/metar/data/
 
METAR text: NWWW 160830Z AUTO 17004KT CAVOK 26/21 Q1008 NOSIG
Conditions at: NWWW (LA TONTOUTA NLLE, WS) observed 0830 UTC 16 December 2019
Temperature: 26.0°C (79°F)
Dewpoint: 21.0°C (70°F) [RH = 74%]
Pressure (altimeter): 29.76 inches Hg (1008.0 mb)
Winds: from the S (170 degrees) at 5 MPH (4 knots; 2.1 m/s)
Visibility: 6 or more miles (10+ km)
Ceiling: ceiling and visibility are OK
Clouds: unknown
Weather: no significant weather observed at this time

METAR text: NWWW 160800Z AUTO 16006KT CAVOK 26/20 Q1008 NOSIG
Conditions at: NWWW (LA TONTOUTA NLLE, WS) observed 0800 UTC 16 December 2019
Temperature: 26.0°C (79°F)
Dewpoint: 20.0°C (68°F) [RH = 70%]
Pressure (altimeter): 29.76 inches Hg (1008.0 mb)
Winds: from the SSE (160 degrees) at 7 MPH (6 knots; 3.1 m/s)
Visibility: 6 or more miles (10+ km)
Ceiling: ceiling and visibility are OK
Clouds: unknown
Weather: no significant weather observed at this time

Forecast for: NWWW (LA TONTOUTA NLLE, WS)
Text: TAF NWWW 160500Z 1606/1706 20010KT CAVOK
Forecast period: 0600 UTC 16 December 2019 to 0600 UTC 17 December 2019
Forecast type: FROM: standard forecast or significant change
Winds: from the SSW (200 degrees) at 12 MPH (10 knots; 5.1 m/s)
Visibility: 6 or more miles 10+ km)
Ceiling: unknown
Clouds: missing
Weather: NSW  (no significant weather)

 AIRPORT MAP

 RUNWAY INFORMATION
Runway 11 Runway length 10663 ft Runway width 148 ft
Runway elevation 30 ft Runway displaced threshold 0 ft Runway heading 121
Runway 29 Runway length 10663 ft Runway width 148 ft
Runway elevation 52 ft Runway displaced threshold 0 ft Runway heading 301

 AIRPORT FREQUENCIES
Type APP Name TONTOUTA A Frequency 119.7 MHZ
Type GND Name GND Frequency 121.7 MHZ
Type INFO Name TONTOUTA I Frequency 128.2 MHZ
Type MISC Name VDF Frequency 118.1 MHZ
Type TWR Name TONTOUTA T Frequency 118.1 MHZ

 AIRPORT NEAR NAVIGATION AIDS
Type NDB Name La Tontouta Frequency 338 KHZ
Type NDB Name La Tontouta Frequency 354 KHZ
Type VOR-DME Name La Tontouta Frequency 112900 KHZ
Type NDB Name La Tontouta Frequency 326 KHZ